Navigator Spirit — C6WL4 — position and weather

sailwx.info

Track history (hours):
 
Tides and Currents Weather Stations Pressure Air Temp Water Temp Dewpoint Dewpoint Depression Visibility Wind Speed Wind Dir Waves Ship Positions

Navigator Spirit

Last reported at 2016-Aug-24 22:33 UTC. Time now 2016-Aug-24 23:16 UTC.
Position N 29°39' W 094°58'.

Length 241 m; draft 8.5 m.

Type: Tanker. MMSI: 309198000.

Date/timePositionNaut miles runAvg speedWind from/ knotsBaromVisibWave heightAir tempDewpointWater temp
2016-Aug-24 22:33N 29°39' W 094°58'10 9.6
2016-Aug-24 21:33N 29°31' W 094°53'10 9.4
2016-Aug-24 20:33N 29°22' W 094°48'  
2016-Aug-20 15:18N 29°38' W 093°49'8 9.8
2016-Aug-20 14:29N 29°45' W 093°53'5 5.7
2016-Aug-20 13:33N 29°49' W 093°57'0 0.0
2016-Aug-18 22:33N 29°49' W 093°58'6 6.4
2016-Aug-18 21:32N 29°44' W 093°53'23 1.8
2016-Aug-18 08:24N 29°25' W 093°37'0 0.0
2016-Aug-18 06:27N 29°25' W 093°37'0 0.0
2016-Aug-18 04:30N 29°25' W 093°37'0 0.0
2016-Aug-18 02:24N 29°25' W 093°37'0 0.0
2016-Aug-18 00:06N 29°25' W 093°37'0 0.0
2016-Aug-17 23:33N 29°25' W 093°37'0 0.0
2016-Aug-17 21:33N 29°25' W 093°37'0 0.0
2016-Aug-17 11:27N 29°25' W 093°37'0 0.0
2016-Aug-17 10:21N 29°25' W 093°37'0 0.0
2016-Aug-17 09:27N 29°25' W 093°37'0 0.0
2016-Aug-17 08:24N 29°25' W 093°37'0 0.0
2016-Aug-17 07:33N 29°25' W 093°37'0 0.0
2016-Aug-17 06:33N 29°25' W 093°37'0 0.0
2016-Aug-16 19:06N 29°25' W 093°37'0 0.0
2016-Aug-16 17:12N 29°25' W 093°37'0 0.0
2016-Aug-16 14:24N 29°25' W 093°37'0 0.0
2016-Aug-16 13:27N 29°25' W 093°37'0 0.0
2016-Aug-16 11:15N 29°25' W 093°37'  
Track history (hours):
 
Tides and Currents Weather Stations Pressure Air Temp Water Temp Dewpoint Dewpoint Depression Visibility Wind Speed Wind Dir Waves Ship Positions

Navigator Spirit

Last reported at 2016-Aug-24 22:33 UTC. Time now 2016-Aug-24 23:16 UTC.
Position N 29°39' W 094°58'.

Length 241 m; draft 8.5 m.

Type: Tanker. MMSI: 309198000.

Date/timePositionNaut miles runAvg speedWind from/ knotsBaromVisibWave heightAir tempDewpointWater temp
2016-Aug-24 22:33N 29°39' W 094°58'10 9.6
2016-Aug-24 21:33N 29°31' W 094°53'10 9.4
2016-Aug-24 20:33N 29°22' W 094°48'  
2016-Aug-20 15:18N 29°38' W 093°49'8 9.8
2016-Aug-20 14:29N 29°45' W 093°53'5 5.7
2016-Aug-20 13:33N 29°49' W 093°57'0 0.0
2016-Aug-18 22:33N 29°49' W 093°58'6 6.4
2016-Aug-18 21:32N 29°44' W 093°53'23 1.8
2016-Aug-18 08:24N 29°25' W 093°37'0 0.0
2016-Aug-18 06:27N 29°25' W 093°37'0 0.0
2016-Aug-18 04:30N 29°25' W 093°37'0 0.0
2016-Aug-18 02:24N 29°25' W 093°37'0 0.0
2016-Aug-18 00:06N 29°25' W 093°37'0 0.0
2016-Aug-17 23:33N 29°25' W 093°37'0 0.0
2016-Aug-17 21:33N 29°25' W 093°37'0 0.0
2016-Aug-17 11:27N 29°25' W 093°37'0 0.0
2016-Aug-17 10:21N 29°25' W 093°37'0 0.0
2016-Aug-17 09:27N 29°25' W 093°37'0 0.0
2016-Aug-17 08:24N 29°25' W 093°37'0 0.0
2016-Aug-17 07:33N 29°25' W 093°37'0 0.0
2016-Aug-17 06:33N 29°25' W 093°37'0 0.0
2016-Aug-16 19:06N 29°25' W 093°37'0 0.0
2016-Aug-16 17:12N 29°25' W 093°37'0 0.0
2016-Aug-16 14:24N 29°25' W 093°37'0 0.0
2016-Aug-16 13:27N 29°25' W 093°37'0 0.0
2016-Aug-16 11:15N 29°25' W 093°37'  

Dump ship's entire track history